Weather at Huron County Memorial Airport

Public forecast

Using degrees Fahrenheit for public forecast. Weather courtesy of forecast.io.

Current aviation weather report (METAR) for Huron County Memorial Airport

2022/11/28 14:35 (retrieved 7 minutes ago)

KBAX 281435Z AUTO 31003KT 10SM OVC036 02/01 A2993 RMK AO2 T00200009

Closest aviation forecast (TAF) to Huron County Memorial Airport

Closest forecast is MBS International Airport, 49.8 nm (92.2 km) WSW.

2022/11/28 12:27 (retrieved 2 hours ago)

TAF KMBS 281125Z 2812/2912 31006KT P6SM SCT015 OVC030 FM281700 27007KT P6SM OVC025 FM282200 22005KT P6SM BKN030 FM290200 16005KT P6SM BKN025